sensor_id;sensor_type;location;lat;lon;timestamp;P1;durP1;ratioP1;P2;durP2;ratioP2
56329;SDS011;42236;48.058;10.632;2023-05-01T00:00:38;12.07;;;7.33;;
56329;SDS011;42236;48.058;10.632;2023-05-01T00:03:23;10.70;;;7.73;;
56329;SDS011;42236;48.058;10.632;2023-05-01T00:06:09;10.23;;;7.07;;
56329;SDS011;42236;48.058;10.632;2023-05-01T00:08:55;9.73;;;6.97;;
56329;SDS011;42236;48.058;10.632;2023-05-01T00:11:41;10.13;;;7.07;;
56329;SDS011;42236;48.058;10.632;2023-05-01T00:14:27;11.07;;;7.57;;
56329;SDS011;42236;48.058;10.632;2023-05-01T00:17:12;9.10;;;7.77;;
56329;SDS011;42236;48.058;10.632;2023-05-01T00:19:58;9.27;;;7.43;;
56329;SDS011;42236;48.058;10.632;2023-05-01T00:22:44;9.73;;;7.17;;
56329;SDS011;42236;48.058;10.632;2023-05-01T00:25:30;8.20;;;6.40;;
56329;SDS011;42236;48.058;10.632;2023-05-01T00:28:19;9.07;;;6.50;;
56329;SDS011;42236;48.058;10.632;2023-05-01T00:31:04;9.17;;;7.23;;
56329;SDS011;42236;48.058;10.632;2023-05-01T00:33:50;7.93;;;6.27;;
56329;SDS011;42236;48.058;10.632;2023-05-01T00:36:36;6.43;;;5.63;;
56329;SDS011;42236;48.058;10.632;2023-05-01T00:39:22;9.90;;;5.60;;
56329;SDS011;42236;48.058;10.632;2023-05-01T00:42:07;6.13;;;4.97;;
56329;SDS011;42236;48.058;10.632;2023-05-01T00:44:53;5.97;;;4.60;;
56329;SDS011;42236;48.058;10.632;2023-05-01T00:47:39;7.33;;;5.30;;
56329;SDS011;42236;48.058;10.632;2023-05-01T00:50:25;7.53;;;4.87;;
56329;SDS011;42236;48.058;10.632;2023-05-01T00:53:11;8.50;;;4.77;;
56329;SDS011;42236;48.058;10.632;2023-05-01T00:55:57;6.87;;;5.47;;
56329;SDS011;42236;48.058;10.632;2023-05-01T00:58:48;5.63;;;4.70;;
56329;SDS011;42236;48.058;10.632;2023-05-01T01:01:38;7.40;;;4.70;;
56329;SDS011;42236;48.058;10.632;2023-05-01T01:04:26;5.73;;;4.70;;
56329;SDS011;42236;48.058;10.632;2023-05-01T01:07:21;7.70;;;4.43;;
56329;SDS011;42236;48.058;10.632;2023-05-01T01:16:31;5.67;;;3.90;;
56329;SDS011;42236;48.058;10.632;2023-05-01T01:19:34;5.57;;;4.60;;
56329;SDS011;42236;48.058;10.632;2023-05-01T01:22:42;7.00;;;4.67;;
56329;SDS011;42236;48.058;10.632;2023-05-01T01:25:54;5.93;;;4.30;;
56329;SDS011;42236;48.058;10.632;2023-05-01T01:32:33;5.13;;;4.43;;
56329;SDS011;42236;48.058;10.632;2023-05-01T01:35:24;4.97;;;3.90;;
56329;SDS011;42236;48.058;10.632;2023-05-01T01:38:22;6.80;;;4.70;;
56329;SDS011;42236;48.058;10.632;2023-05-01T01:41:16;8.57;;;4.73;;
56329;SDS011;42236;48.058;10.632;2023-05-01T01:44:09;7.60;;;5.20;;
56329;SDS011;42236;48.058;10.632;2023-05-01T01:47:04;7.13;;;5.23;;
56329;SDS011;42236;48.058;10.632;2023-05-01T01:49:52;5.50;;;4.97;;
56329;SDS011;42236;48.058;10.632;2023-05-01T01:52:40;8.63;;;5.07;;
56329;SDS011;42236;48.058;10.632;2023-05-01T01:55:29;8.50;;;5.47;;
56329;SDS011;42236;48.058;10.632;2023-05-01T01:58:17;9.07;;;4.80;;
56329;SDS011;42236;48.058;10.632;2023-05-01T02:01:10;8.13;;;4.83;;
56329;SDS011;42236;48.058;10.632;2023-05-01T02:03:59;7.27;;;5.50;;
56329;SDS011;42236;48.058;10.632;2023-05-01T02:06:46;11.23;;;5.83;;
56329;SDS011;42236;48.058;10.632;2023-05-01T02:09:33;6.23;;;5.17;;
56329;SDS011;42236;48.058;10.632;2023-05-01T02:12:19;5.83;;;5.23;;
56329;SDS011;42236;48.058;10.632;2023-05-01T02:15:07;5.33;;;4.77;;
56329;SDS011;42236;48.058;10.632;2023-05-01T02:17:54;6.50;;;4.70;;
56329;SDS011;42236;48.058;10.632;2023-05-01T02:20:41;6.10;;;4.70;;
56329;SDS011;42236;48.058;10.632;2023-05-01T02:23:28;5.43;;;4.53;;
56329;SDS011;42236;48.058;10.632;2023-05-01T02:26:16;5.07;;;4.30;;
56329;SDS011;42236;48.058;10.632;2023-05-01T02:29:04;6.87;;;4.43;;
56329;SDS011;42236;48.058;10.632;2023-05-01T02:31:51;5.30;;;4.37;;
56329;SDS011;42236;48.058;10.632;2023-05-01T02:34:37;7.27;;;4.63;;
56329;SDS011;42236;48.058;10.632;2023-05-01T02:37:23;4.07;;;3.77;;
56329;SDS011;42236;48.058;10.632;2023-05-01T02:40:09;4.03;;;3.50;;
56329;SDS011;42236;48.058;10.632;2023-05-01T02:42:56;8.07;;;4.20;;
56329;SDS011;42236;48.058;10.632;2023-05-01T02:45:45;5.73;;;4.17;;
56329;SDS011;42236;48.058;10.632;2023-05-01T02:48:32;7.77;;;4.80;;
56329;SDS011;42236;48.058;10.632;2023-05-01T02:51:19;7.27;;;4.50;;
56329;SDS011;42236;48.058;10.632;2023-05-01T02:54:06;7.93;;;4.47;;
56329;SDS011;42236;48.058;10.632;2023-05-01T02:56:52;4.07;;;3.67;;
56329;SDS011;42236;48.058;10.632;2023-05-01T02:59:38;4.63;;;4.23;;
56329;SDS011;42236;48.058;10.632;2023-05-01T03:02:25;4.40;;;4.00;;
56329;SDS011;42236;48.058;10.632;2023-05-01T03:05:11;6.03;;;4.27;;
56329;SDS011;42236;48.058;10.632;2023-05-01T03:07:56;5.77;;;4.50;;
56329;SDS011;42236;48.058;10.632;2023-05-01T03:10:42;5.60;;;4.30;;
56329;SDS011;42236;48.058;10.632;2023-05-01T03:13:28;5.00;;;3.90;;
56329;SDS011;42236;48.058;10.632;2023-05-01T03:16:14;4.47;;;4.00;;
56329;SDS011;42236;48.058;10.632;2023-05-01T03:18:59;5.80;;;4.17;;
56329;SDS011;42236;48.058;10.632;2023-05-01T03:21:45;4.87;;;4.07;;
56329;SDS011;42236;48.058;10.632;2023-05-01T03:24:31;5.87;;;4.30;;
56329;SDS011;42236;48.058;10.632;2023-05-01T03:27:16;4.90;;;3.70;;
56329;SDS011;42236;48.058;10.632;2023-05-01T03:30:02;4.80;;;4.00;;
56329;SDS011;42236;48.058;10.632;2023-05-01T03:32:49;5.30;;;4.80;;
56329;SDS011;42236;48.058;10.632;2023-05-01T03:35:35;4.07;;;3.57;;
56329;SDS011;42236;48.058;10.632;2023-05-01T03:38:22;5.90;;;4.83;;
56329;SDS011;42236;48.058;10.632;2023-05-01T03:41:08;4.77;;;4.27;;
56329;SDS011;42236;48.058;10.632;2023-05-01T03:43:53;6.70;;;3.93;;
56329;SDS011;42236;48.058;10.632;2023-05-01T03:46:39;5.23;;;3.97;;
56329;SDS011;42236;48.058;10.632;2023-05-01T03:49:25;5.37;;;4.67;;
56329;SDS011;42236;48.058;10.632;2023-05-01T03:52:11;4.50;;;3.80;;
56329;SDS011;42236;48.058;10.632;2023-05-01T03:54:57;5.23;;;4.70;;
56329;SDS011;42236;48.058;10.632;2023-05-01T03:57:43;7.70;;;4.13;;
56329;SDS011;42236;48.058;10.632;2023-05-01T04:00:31;5.13;;;3.70;;
56329;SDS011;42236;48.058;10.632;2023-05-01T04:03:17;6.67;;;4.97;;
56329;SDS011;42236;48.058;10.632;2023-05-01T04:06:03;9.77;;;4.10;;
56329;SDS011;42236;48.058;10.632;2023-05-01T04:08:48;6.50;;;4.77;;
56329;SDS011;42236;48.058;10.632;2023-05-01T04:11:34;5.33;;;4.80;;
56329;SDS011;42236;48.058;10.632;2023-05-01T04:14:20;5.13;;;4.67;;
56329;SDS011;42236;48.058;10.632;2023-05-01T04:17:05;5.23;;;4.73;;
56329;SDS011;42236;48.058;10.632;2023-05-01T04:19:51;5.10;;;4.37;;
56329;SDS011;42236;48.058;10.632;2023-05-01T04:22:37;5.07;;;4.57;;
56329;SDS011;42236;48.058;10.632;2023-05-01T04:25:23;6.60;;;4.37;;
56329;SDS011;42236;48.058;10.632;2023-05-01T04:28:11;8.93;;;5.80;;
56329;SDS011;42236;48.058;10.632;2023-05-01T04:30:57;6.07;;;4.87;;
56329;SDS011;42236;48.058;10.632;2023-05-01T04:33:43;5.67;;;4.87;;
56329;SDS011;42236;48.058;10.632;2023-05-01T04:36:29;5.47;;;4.63;;
56329;SDS011;42236;48.058;10.632;2023-05-01T04:39:17;6.33;;;4.83;;
56329;SDS011;42236;48.058;10.632;2023-05-01T04:42:02;5.03;;;4.53;;
56329;SDS011;42236;48.058;10.632;2023-05-01T04:44:49;5.83;;;4.77;;
56329;SDS011;42236;48.058;10.632;2023-05-01T04:47:34;5.97;;;4.13;;
56329;SDS011;42236;48.058;10.632;2023-05-01T04:50:20;5.03;;;4.30;;
56329;SDS011;42236;48.058;10.632;2023-05-01T04:53:06;5.50;;;4.33;;
56329;SDS011;42236;48.058;10.632;2023-05-01T04:55:51;5.20;;;4.60;;
56329;SDS011;42236;48.058;10.632;2023-05-01T04:58:37;4.60;;;4.20;;
56329;SDS011;42236;48.058;10.632;2023-05-01T05:01:23;4.23;;;3.70;;
56329;SDS011;42236;48.058;10.632;2023-05-01T05:04:08;4.73;;;4.23;;
56329;SDS011;42236;48.058;10.632;2023-05-01T05:06:54;5.47;;;4.67;;
56329;SDS011;42236;48.058;10.632;2023-05-01T05:09:40;5.57;;;5.03;;
56329;SDS011;42236;48.058;10.632;2023-05-01T05:12:26;4.23;;;3.93;;
56329;SDS011;42236;48.058;10.632;2023-05-01T05:15:11;5.20;;;4.67;;
56329;SDS011;42236;48.058;10.632;2023-05-01T05:17:57;7.07;;;5.50;;
56329;SDS011;42236;48.058;10.632;2023-05-01T05:20:42;4.53;;;4.13;;
56329;SDS011;42236;48.058;10.632;2023-05-01T05:23:28;7.23;;;4.20;;
56329;SDS011;42236;48.058;10.632;2023-05-01T05:26:15;6.67;;;3.93;;
56329;SDS011;42236;48.058;10.632;2023-05-01T05:29:00;5.50;;;5.00;;
56329;SDS011;42236;48.058;10.632;2023-05-01T05:31:46;4.80;;;4.13;;
56329;SDS011;42236;48.058;10.632;2023-05-01T05:34:32;6.37;;;4.97;;
56329;SDS011;42236;48.058;10.632;2023-05-01T05:37:17;5.43;;;4.90;;
56329;SDS011;42236;48.058;10.632;2023-05-01T05:40:03;5.00;;;4.13;;
56329;SDS011;42236;48.058;10.632;2023-05-01T05:42:49;5.17;;;4.67;;
56329;SDS011;42236;48.058;10.632;2023-05-01T05:45:35;5.80;;;4.67;;
56329;SDS011;42236;48.058;10.632;2023-05-01T05:48:21;6.07;;;5.00;;
56329;SDS011;42236;48.058;10.632;2023-05-01T05:51:07;5.30;;;4.83;;
56329;SDS011;42236;48.058;10.632;2023-05-01T05:53:52;7.13;;;4.50;;
56329;SDS011;42236;48.058;10.632;2023-05-01T05:56:38;4.77;;;4.33;;
56329;SDS011;42236;48.058;10.632;2023-05-01T05:59:24;6.40;;;5.10;;
56329;SDS011;42236;48.058;10.632;2023-05-01T06:02:09;7.70;;;5.17;;
56329;SDS011;42236;48.058;10.632;2023-05-01T06:04:55;7.73;;;5.00;;
56329;SDS011;42236;48.058;10.632;2023-05-01T06:07:41;7.37;;;4.63;;
56329;SDS011;42236;48.058;10.632;2023-05-01T06:10:27;5.83;;;5.20;;
56329;SDS011;42236;48.058;10.632;2023-05-01T06:13:13;5.53;;;4.93;;
56329;SDS011;42236;48.058;10.632;2023-05-01T06:15:59;8.77;;;4.70;;
56329;SDS011;42236;48.058;10.632;2023-05-01T06:18:45;4.63;;;4.10;;
56329;SDS011;42236;48.058;10.632;2023-05-01T06:21:31;5.10;;;4.63;;
56329;SDS011;42236;48.058;10.632;2023-05-01T06:24:17;6.77;;;5.30;;
56329;SDS011;42236;48.058;10.632;2023-05-01T06:27:03;6.67;;;4.57;;
56329;SDS011;42236;48.058;10.632;2023-05-01T06:29:49;6.87;;;4.77;;
56329;SDS011;42236;48.058;10.632;2023-05-01T06:32:35;6.77;;;4.43;;
56329;SDS011;42236;48.058;10.632;2023-05-01T06:35:21;5.60;;;4.50;;
56329;SDS011;42236;48.058;10.632;2023-05-01T06:38:06;5.87;;;4.33;;
56329;SDS011;42236;48.058;10.632;2023-05-01T06:40:52;6.50;;;5.10;;
56329;SDS011;42236;48.058;10.632;2023-05-01T06:43:38;6.10;;;4.70;;
56329;SDS011;42236;48.058;10.632;2023-05-01T06:46:24;5.77;;;4.47;;
56329;SDS011;42236;48.058;10.632;2023-05-01T06:49:09;5.40;;;4.60;;
56329;SDS011;42236;48.058;10.632;2023-05-01T06:51:55;5.37;;;4.23;;
56329;SDS011;42236;48.058;10.632;2023-05-01T06:54:41;4.63;;;4.23;;
56329;SDS011;42236;48.058;10.632;2023-05-01T06:57:26;5.70;;;5.07;;
56329;SDS011;42236;48.058;10.632;2023-05-01T07:00:12;7.30;;;4.30;;
56329;SDS011;42236;48.058;10.632;2023-05-01T07:02:58;5.33;;;4.53;;
56329;SDS011;42236;48.058;10.632;2023-05-01T07:05:44;5.17;;;4.10;;
56329;SDS011;42236;48.058;10.632;2023-05-01T07:08:30;4.80;;;4.30;;
56329;SDS011;42236;48.058;10.632;2023-05-01T07:11:16;5.63;;;4.50;;
56329;SDS011;42236;48.058;10.632;2023-05-01T07:14:02;4.80;;;4.30;;
56329;SDS011;42236;48.058;10.632;2023-05-01T07:16:48;5.60;;;4.10;;
56329;SDS011;42236;48.058;10.632;2023-05-01T07:19:33;8.37;;;4.77;;
56329;SDS011;42236;48.058;10.632;2023-05-01T07:22:19;5.73;;;5.17;;
56329;SDS011;42236;48.058;10.632;2023-05-01T07:25:05;5.87;;;4.80;;
56329;SDS011;42236;48.058;10.632;2023-05-01T07:27:51;5.83;;;5.23;;
56329;SDS011;42236;48.058;10.632;2023-05-01T07:30:38;6.63;;;5.03;;
56329;SDS011;42236;48.058;10.632;2023-05-01T07:33:24;9.07;;;5.17;;
56329;SDS011;42236;48.058;10.632;2023-05-01T07:36:10;7.83;;;5.77;;
56329;SDS011;42236;48.058;10.632;2023-05-01T07:38:56;6.23;;;5.37;;
56329;SDS011;42236;48.058;10.632;2023-05-01T07:41:42;7.47;;;5.73;;
56329;SDS011;42236;48.058;10.632;2023-05-01T07:44:28;6.47;;;5.83;;
56329;SDS011;42236;48.058;10.632;2023-05-01T07:47:13;7.43;;;5.83;;
56329;SDS011;42236;48.058;10.632;2023-05-01T07:49:59;7.53;;;5.80;;
56329;SDS011;42236;48.058;10.632;2023-05-01T07:52:45;5.87;;;5.23;;
56329;SDS011;42236;48.058;10.632;2023-05-01T07:55:31;8.37;;;5.10;;
56329;SDS011;42236;48.058;10.632;2023-05-01T07:58:16;8.93;;;6.83;;
56329;SDS011;42236;48.058;10.632;2023-05-01T08:01:02;9.63;;;7.97;;
56329;SDS011;42236;48.058;10.632;2023-05-01T08:03:48;10.27;;;7.50;;
56329;SDS011;42236;48.058;10.632;2023-05-01T08:06:33;11.77;;;7.27;;
56329;SDS011;42236;48.058;10.632;2023-05-01T08:09:19;9.67;;;7.13;;
56329;SDS011;42236;48.058;10.632;2023-05-01T08:12:05;8.57;;;7.67;;
56329;SDS011;42236;48.058;10.632;2023-05-01T08:14:51;8.87;;;7.50;;
56329;SDS011;42236;48.058;10.632;2023-05-01T08:17:37;8.70;;;7.83;;
56329;SDS011;42236;48.058;10.632;2023-05-01T08:20:23;12.13;;;7.23;;
56329;SDS011;42236;48.058;10.632;2023-05-01T08:23:09;8.73;;;7.00;;
56329;SDS011;42236;48.058;10.632;2023-05-01T08:25:55;9.03;;;7.97;;
56329;SDS011;42236;48.058;10.632;2023-05-01T08:28:41;10.33;;;6.87;;
56329;SDS011;42236;48.058;10.632;2023-05-01T08:31:26;8.80;;;7.47;;
56329;SDS011;42236;48.058;10.632;2023-05-01T08:34:12;8.33;;;7.40;;
56329;SDS011;42236;48.058;10.632;2023-05-01T08:36:58;9.47;;;7.30;;
56329;SDS011;42236;48.058;10.632;2023-05-01T08:39:44;9.87;;;7.90;;
56329;SDS011;42236;48.058;10.632;2023-05-01T08:42:30;8.43;;;7.53;;
56329;SDS011;42236;48.058;10.632;2023-05-01T08:45:15;10.13;;;8.03;;
56329;SDS011;42236;48.058;10.632;2023-05-01T08:48:06;9.73;;;8.00;;
56329;SDS011;42236;48.058;10.632;2023-05-01T08:50:55;9.30;;;8.23;;
56329;SDS011;42236;48.058;10.632;2023-05-01T08:53:45;11.87;;;8.90;;
56329;SDS011;42236;48.058;10.632;2023-05-01T08:56:35;10.20;;;7.70;;
56329;SDS011;42236;48.058;10.632;2023-05-01T08:59:21;11.37;;;8.57;;
56329;SDS011;42236;48.058;10.632;2023-05-01T09:02:09;11.82;;;8.57;;
56329;SDS011;42236;48.058;10.632;2023-05-01T09:04:55;9.67;;;6.67;;
56329;SDS011;42236;48.058;10.632;2023-05-01T09:07:42;8.90;;;7.53;;
56329;SDS011;42236;48.058;10.632;2023-05-01T09:10:30;9.97;;;7.67;;
56329;SDS011;42236;48.058;10.632;2023-05-01T09:13:17;8.90;;;8.00;;
56329;SDS011;42236;48.058;10.632;2023-05-01T09:16:04;8.87;;;7.60;;
56329;SDS011;42236;48.058;10.632;2023-05-01T09:18:50;8.82;;;7.72;;
56329;SDS011;42236;48.058;10.632;2023-05-01T09:21:39;9.13;;;7.82;;
56329;SDS011;42236;48.058;10.632;2023-05-01T09:24:24;8.10;;;7.07;;
56329;SDS011;42236;48.058;10.632;2023-05-01T09:27:11;10.65;;;7.45;;
56329;SDS011;42236;48.058;10.632;2023-05-01T09:29:57;7.90;;;7.10;;
56329;SDS011;42236;48.058;10.632;2023-05-01T09:32:43;7.35;;;6.70;;
56329;SDS011;42236;48.058;10.632;2023-05-01T09:35:28;9.63;;;7.78;;
56329;SDS011;42236;48.058;10.632;2023-05-01T09:38:22;10.20;;;7.60;;
56329;SDS011;42236;48.058;10.632;2023-05-01T09:41:11;11.52;;;8.70;;
56329;SDS011;42236;48.058;10.632;2023-05-01T09:43:57;9.27;;;7.32;;
56329;SDS011;42236;48.058;10.632;2023-05-01T09:46:43;7.88;;;7.07;;
56329;SDS011;42236;48.058;10.632;2023-05-01T09:49:43;9.70;;;7.88;;
56329;SDS011;42236;48.058;10.632;2023-05-01T09:52:30;10.80;;;8.52;;
56329;SDS011;42236;48.058;10.632;2023-05-01T09:55:18;9.27;;;7.88;;
56329;SDS011;42236;48.058;10.632;2023-05-01T09:58:15;9.35;;;7.70;;
56329;SDS011;42236;48.058;10.632;2023-05-01T10:01:11;9.45;;;8.15;;
56329;SDS011;42236;48.058;10.632;2023-05-01T10:03:57;9.20;;;7.90;;
56329;SDS011;42236;48.058;10.632;2023-05-01T10:06:50;7.72;;;6.90;;
56329;SDS011;42236;48.058;10.632;2023-05-01T10:10:18;8.43;;;7.20;;
56329;SDS011;42236;48.058;10.632;2023-05-01T10:13:12;7.85;;;6.88;;
56329;SDS011;42236;48.058;10.632;2023-05-01T10:15:59;8.75;;;6.78;;
56329;SDS011;42236;48.058;10.632;2023-05-01T10:18:48;11.13;;;7.63;;
56329;SDS011;42236;48.058;10.632;2023-05-01T10:21:33;8.50;;;7.45;;
56329;SDS011;42236;48.058;10.632;2023-05-01T10:24:19;7.50;;;6.70;;
56329;SDS011;42236;48.058;10.632;2023-05-01T10:27:06;8.60;;;7.55;;
56329;SDS011;42236;48.058;10.632;2023-05-01T10:29:52;7.00;;;6.30;;
56329;SDS011;42236;48.058;10.632;2023-05-01T10:32:39;7.75;;;6.35;;
56329;SDS011;42236;48.058;10.632;2023-05-01T10:35:36;7.03;;;6.32;;
56329;SDS011;42236;48.058;10.632;2023-05-01T10:38:25;6.30;;;5.35;;
56329;SDS011;42236;48.058;10.632;2023-05-01T10:41:40;10.93;;;7.05;;
56329;SDS011;42236;48.058;10.632;2023-05-01T10:44:42;6.05;;;5.35;;
56329;SDS011;42236;48.058;10.632;2023-05-01T10:50:15;8.32;;;4.68;;
56329;SDS011;42236;48.058;10.632;2023-05-01T10:55:56;6.95;;;5.68;;
56329;SDS011;42236;48.058;10.632;2023-05-01T11:07:14;5.65;;;5.03;;
56329;SDS011;42236;48.058;10.632;2023-05-01T11:10:02;5.57;;;5.05;;
56329;SDS011;42236;48.058;10.632;2023-05-01T11:16:40;4.90;;;4.45;;
56329;SDS011;42236;48.058;10.632;2023-05-01T11:22:12;5.47;;;4.97;;
56329;SDS011;42236;48.058;10.632;2023-05-01T11:24:58;5.60;;;5.10;;
56329;SDS011;42236;48.058;10.632;2023-05-01T11:27:49;7.75;;;5.63;;
56329;SDS011;42236;48.058;10.632;2023-05-01T11:30:43;6.72;;;5.50;;
56329;SDS011;42236;48.058;10.632;2023-05-01T11:33:30;6.78;;;4.75;;
56329;SDS011;42236;48.058;10.632;2023-05-01T11:36:17;6.28;;;5.47;;
56329;SDS011;42236;48.058;10.632;2023-05-01T11:39:04;6.25;;;5.10;;
56329;SDS011;42236;48.058;10.632;2023-05-01T11:41:49;6.20;;;5.60;;
56329;SDS011;42236;48.058;10.632;2023-05-01T11:44:35;5.68;;;4.93;;
56329;SDS011;42236;48.058;10.632;2023-05-01T11:47:21;6.43;;;4.78;;
56329;SDS011;42236;48.058;10.632;2023-05-01T11:50:08;5.72;;;4.95;;
56329;SDS011;42236;48.058;10.632;2023-05-01T11:52:55;5.72;;;4.72;;
56329;SDS011;42236;48.058;10.632;2023-05-01T11:55:40;5.85;;;5.20;;
56329;SDS011;42236;48.058;10.632;2023-05-01T11:58:32;6.50;;;5.40;;
56329;SDS011;42236;48.058;10.632;2023-05-01T12:01:18;6.03;;;5.32;;
56329;SDS011;42236;48.058;10.632;2023-05-01T12:04:05;5.28;;;4.82;;
56329;SDS011;42236;48.058;10.632;2023-05-01T12:06:53;7.03;;;5.68;;
56329;SDS011;42236;48.058;10.632;2023-05-01T12:09:39;5.45;;;4.65;;
56329;SDS011;42236;48.058;10.632;2023-05-01T12:12:26;5.55;;;4.72;;
56329;SDS011;42236;48.058;10.632;2023-05-01T12:15:12;6.32;;;5.72;;
56329;SDS011;42236;48.058;10.632;2023-05-01T12:17:58;5.72;;;5.22;;
56329;SDS011;42236;48.058;10.632;2023-05-01T12:20:45;7.35;;;5.70;;
56329;SDS011;42236;48.058;10.632;2023-05-01T12:23:33;5.35;;;4.85;;
56329;SDS011;42236;48.058;10.632;2023-05-01T12:26:22;6.70;;;5.18;;
56329;SDS011;42236;48.058;10.632;2023-05-01T12:29:12;8.38;;;5.15;;
56329;SDS011;42236;48.058;10.632;2023-05-01T12:31:57;7.38;;;5.05;;
56329;SDS011;42236;48.058;10.632;2023-05-01T12:34:43;5.50;;;4.95;;
56329;SDS011;42236;48.058;10.632;2023-05-01T12:37:30;5.88;;;4.50;;
56329;SDS011;42236;48.058;10.632;2023-05-01T12:40:16;5.35;;;4.80;;
56329;SDS011;42236;48.058;10.632;2023-05-01T12:43:03;5.50;;;4.63;;
56329;SDS011;42236;48.058;10.632;2023-05-01T12:45:51;7.90;;;5.25;;
56329;SDS011;42236;48.058;10.632;2023-05-01T12:48:37;6.72;;;4.85;;
56329;SDS011;42236;48.058;10.632;2023-05-01T12:51:24;6.07;;;4.68;;
56329;SDS011;42236;48.058;10.632;2023-05-01T12:54:11;6.80;;;5.95;;
56329;SDS011;42236;48.058;10.632;2023-05-01T12:57:13;5.50;;;4.50;;
56329;SDS011;42236;48.058;10.632;2023-05-01T13:00:03;7.60;;;4.20;;
56329;SDS011;42236;48.058;10.632;2023-05-01T13:02:49;4.07;;;3.72;;
56329;SDS011;42236;48.058;10.632;2023-05-01T13:05:48;4.60;;;4.07;;
56329;SDS011;42236;48.058;10.632;2023-05-01T13:08:36;3.90;;;3.33;;
56329;SDS011;42236;48.058;10.632;2023-05-01T13:11:24;4.80;;;3.97;;
56329;SDS011;42236;48.058;10.632;2023-05-01T13:14:10;4.53;;;3.78;;
56329;SDS011;42236;48.058;10.632;2023-05-01T13:16:56;4.20;;;3.80;;
56329;SDS011;42236;48.058;10.632;2023-05-01T13:19:42;6.22;;;5.72;;
56329;SDS011;42236;48.058;10.632;2023-05-01T13:22:34;2.78;;;2.55;;
56329;SDS011;42236;48.058;10.632;2023-05-01T13:25:21;4.13;;;2.47;;
56329;SDS011;42236;48.058;10.632;2023-05-01T13:28:07;3.95;;;3.03;;
56329;SDS011;42236;48.058;10.632;2023-05-01T13:30:53;2.67;;;2.47;;
56329;SDS011;42236;48.058;10.632;2023-05-01T13:33:40;2.30;;;2.10;;
56329;SDS011;42236;48.058;10.632;2023-05-01T13:36:30;2.20;;;2.05;;
56329;SDS011;42236;48.058;10.632;2023-05-01T13:39:17;2.03;;;1.83;;
56329;SDS011;42236;48.058;10.632;2023-05-01T13:42:05;2.67;;;2.30;;
56329;SDS011;42236;48.058;10.632;2023-05-01T13:44:52;2.67;;;2.47;;
56329;SDS011;42236;48.058;10.632;2023-05-01T13:47:40;3.38;;;2.28;;
56329;SDS011;42236;48.058;10.632;2023-05-01T13:50:29;2.22;;;2.10;;
56329;SDS011;42236;48.058;10.632;2023-05-01T13:53:15;2.45;;;1.98;;
56329;SDS011;42236;48.058;10.632;2023-05-01T13:56:04;3.95;;;2.20;;
56329;SDS011;42236;48.058;10.632;2023-05-01T13:58:51;2.47;;;1.90;;
56329;SDS011;42236;48.058;10.632;2023-05-01T14:01:38;2.83;;;2.60;;
56329;SDS011;42236;48.058;10.632;2023-05-01T14:04:35;5.63;;;4.05;;
56329;SDS011;42236;48.058;10.632;2023-05-01T14:07:28;2.50;;;2.22;;
56329;SDS011;42236;48.058;10.632;2023-05-01T14:10:17;2.88;;;2.17;;
56329;SDS011;42236;48.058;10.632;2023-05-01T14:13:03;2.95;;;2.75;;
56329;SDS011;42236;48.058;10.632;2023-05-01T14:15:49;3.92;;;3.58;;
56329;SDS011;42236;48.058;10.632;2023-05-01T14:18:35;3.35;;;2.88;;
56329;SDS011;42236;48.058;10.632;2023-05-01T14:21:27;2.13;;;1.92;;
56329;SDS011;42236;48.058;10.632;2023-05-01T14:24:14;5.35;;;2.50;;
56329;SDS011;42236;48.058;10.632;2023-05-01T14:27:02;3.33;;;3.00;;
56329;SDS011;42236;48.058;10.632;2023-05-01T14:29:48;2.83;;;2.63;;
56329;SDS011;42236;48.058;10.632;2023-05-01T14:32:36;2.40;;;2.30;;
56329;SDS011;42236;48.058;10.632;2023-05-01T14:35:24;4.22;;;3.13;;
56329;SDS011;42236;48.058;10.632;2023-05-01T14:38:11;4.15;;;2.95;;
56329;SDS011;42236;48.058;10.632;2023-05-01T14:40:58;2.78;;;2.58;;
56329;SDS011;42236;48.058;10.632;2023-05-01T14:43:44;5.63;;;5.07;;
56329;SDS011;42236;48.058;10.632;2023-05-01T14:46:30;3.08;;;2.78;;
56329;SDS011;42236;48.058;10.632;2023-05-01T14:49:19;3.72;;;3.33;;
56329;SDS011;42236;48.058;10.632;2023-05-01T14:52:08;6.90;;;6.25;;
56329;SDS011;42236;48.058;10.632;2023-05-01T14:54:54;4.53;;;4.13;;
56329;SDS011;42236;48.058;10.632;2023-05-01T14:57:40;5.50;;;5.00;;
56329;SDS011;42236;48.058;10.632;2023-05-01T15:00:32;4.50;;;4.10;;
56329;SDS011;42236;48.058;10.632;2023-05-01T15:03:18;8.68;;;7.78;;
56329;SDS011;42236;48.058;10.632;2023-05-01T15:06:24;3.10;;;2.83;;
56329;SDS011;42236;48.058;10.632;2023-05-01T15:09:11;5.90;;;5.32;;
56329;SDS011;42236;48.058;10.632;2023-05-01T15:11:57;3.35;;;3.05;;
56329;SDS011;42236;48.058;10.632;2023-05-01T15:14:42;3.60;;;2.47;;
56329;SDS011;42236;48.058;10.632;2023-05-01T15:17:29;2.85;;;2.65;;
56329;SDS011;42236;48.058;10.632;2023-05-01T15:20:21;6.00;;;3.33;;
56329;SDS011;42236;48.058;10.632;2023-05-01T15:23:07;6.35;;;3.20;;
56329;SDS011;42236;48.058;10.632;2023-05-01T15:25:54;2.22;;;2.10;;
56329;SDS011;42236;48.058;10.632;2023-05-01T15:28:39;2.50;;;2.30;;
56329;SDS011;42236;48.058;10.632;2023-05-01T15:31:25;4.00;;;3.60;;
56329;SDS011;42236;48.058;10.632;2023-05-01T15:34:11;3.67;;;2.90;;
56329;SDS011;42236;48.058;10.632;2023-05-01T15:36:57;2.92;;;2.63;;
56329;SDS011;42236;48.058;10.632;2023-05-01T15:39:42;2.22;;;1.83;;
56329;SDS011;42236;48.058;10.632;2023-05-01T15:42:28;2.97;;;2.53;;
56329;SDS011;42236;48.058;10.632;2023-05-01T15:45:14;5.10;;;2.00;;
56329;SDS011;42236;48.058;10.632;2023-05-01T15:48:00;2.65;;;1.85;;
56329;SDS011;42236;48.058;10.632;2023-05-01T15:50:46;1.88;;;1.77;;
56329;SDS011;42236;48.058;10.632;2023-05-01T15:53:31;1.60;;;1.50;;
56329;SDS011;42236;48.058;10.632;2023-05-01T15:56:17;1.50;;;1.40;;
56329;SDS011;42236;48.058;10.632;2023-05-01T15:59:04;1.85;;;1.70;;
56329;SDS011;42236;48.058;10.632;2023-05-01T16:01:51;1.95;;;1.60;;
56329;SDS011;42236;48.058;10.632;2023-05-01T16:04:38;1.60;;;1.50;;
56329;SDS011;42236;48.058;10.632;2023-05-01T16:07:24;1.40;;;1.27;;
56329;SDS011;42236;48.058;10.632;2023-05-01T16:10:13;1.35;;;1.25;;
56329;SDS011;42236;48.058;10.632;2023-05-01T16:12:58;1.00;;;1.00;;
56329;SDS011;42236;48.058;10.632;2023-05-01T16:15:44;0.93;;;0.90;;
56329;SDS011;42236;48.058;10.632;2023-05-01T16:18:30;1.38;;;0.70;;
56329;SDS011;42236;48.058;10.632;2023-05-01T16:21:16;0.98;;;0.70;;
56329;SDS011;42236;48.058;10.632;2023-05-01T16:24:07;0.77;;;0.65;;
56329;SDS011;42236;48.058;10.632;2023-05-01T16:26:55;0.80;;;0.80;;
56329;SDS011;42236;48.058;10.632;2023-05-01T16:29:40;0.80;;;0.80;;
56329;SDS011;42236;48.058;10.632;2023-05-01T16:32:29;0.90;;;0.73;;
56329;SDS011;42236;48.058;10.632;2023-05-01T16:35:16;0.70;;;0.70;;
56329;SDS011;42236;48.058;10.632;2023-05-01T16:38:13;1.85;;;0.80;;
56329;SDS011;42236;48.058;10.632;2023-05-01T16:41:01;0.90;;;0.90;;
56329;SDS011;42236;48.058;10.632;2023-05-01T16:43:48;0.82;;;0.82;;
56329;SDS011;42236;48.058;10.632;2023-05-01T16:46:34;0.90;;;0.90;;
56329;SDS011;42236;48.058;10.632;2023-05-01T16:49:20;1.48;;;0.82;;
56329;SDS011;42236;48.058;10.632;2023-05-01T16:52:07;0.70;;;0.70;;
56329;SDS011;42236;48.058;10.632;2023-05-01T16:54:57;0.70;;;0.70;;
56329;SDS011;42236;48.058;10.632;2023-05-01T16:57:43;0.70;;;0.70;;
56329;SDS011;42236;48.058;10.632;2023-05-01T17:00:29;0.80;;;0.80;;
56329;SDS011;42236;48.058;10.632;2023-05-01T17:03:15;1.10;;;1.00;;